sensor_id;sensor_type;location;lat;lon;timestamp;P1;durP1;ratioP1;P2;durP2;ratioP2
50745;SDS011;36711;51.972;21.204;2023-03-20T00:02:23;22.20;;;11.40;;
50745;SDS011;36711;51.972;21.204;2023-03-20T00:04:52;22.30;;;11.20;;
50745;SDS011;36711;51.972;21.204;2023-03-20T00:07:21;22.90;;;11.00;;
50745;SDS011;36711;51.972;21.204;2023-03-20T00:09:50;21.20;;;10.90;;
50745;SDS011;36711;51.972;21.204;2023-03-20T00:12:21;20.50;;;11.10;;
50745;SDS011;36711;51.972;21.204;2023-03-20T00:14:51;22.40;;;11.10;;
50745;SDS011;36711;51.972;21.204;2023-03-20T00:17:20;18.30;;;10.20;;
50745;SDS011;36711;51.972;21.204;2023-03-20T00:19:48;26.40;;;11.90;;
50745;SDS011;36711;51.972;21.204;2023-03-20T00:22:18;24.30;;;11.00;;
50745;SDS011;36711;51.972;21.204;2023-03-20T00:24:46;21.70;;;11.00;;
50745;SDS011;36711;51.972;21.204;2023-03-20T00:27:16;21.40;;;11.10;;
50745;SDS011;36711;51.972;21.204;2023-03-20T00:29:45;19.10;;;10.60;;
50745;SDS011;36711;51.972;21.204;2023-03-20T00:32:14;21.20;;;10.70;;
50745;SDS011;36711;51.972;21.204;2023-03-20T00:34:43;18.20;;;9.80;;
50745;SDS011;36711;51.972;21.204;2023-03-20T00:37:12;22.10;;;10.40;;
50745;SDS011;36711;51.972;21.204;2023-03-20T00:39:41;18.50;;;10.40;;
50745;SDS011;36711;51.972;21.204;2023-03-20T00:42:12;23.40;;;10.20;;
50745;SDS011;36711;51.972;21.204;2023-03-20T00:44:47;17.40;;;9.60;;
50745;SDS011;36711;51.972;21.204;2023-03-20T00:47:17;17.10;;;9.30;;
50745;SDS011;36711;51.972;21.204;2023-03-20T00:49:47;18.70;;;10.00;;
50745;SDS011;36711;51.972;21.204;2023-03-20T00:52:18;19.10;;;9.80;;
50745;SDS011;36711;51.972;21.204;2023-03-20T00:54:47;20.60;;;9.60;;
50745;SDS011;36711;51.972;21.204;2023-03-20T00:57:21;18.90;;;9.40;;
50745;SDS011;36711;51.972;21.204;2023-03-20T01:02:20;19.30;;;10.90;;
50745;SDS011;36711;51.972;21.204;2023-03-20T01:04:51;20.90;;;10.40;;
50745;SDS011;36711;51.972;21.204;2023-03-20T01:07:20;21.60;;;10.20;;
50745;SDS011;36711;51.972;21.204;2023-03-20T01:09:49;18.20;;;10.20;;
50745;SDS011;36711;51.972;21.204;2023-03-20T01:12:18;25.10;;;10.50;;
50745;SDS011;36711;51.972;21.204;2023-03-20T01:14:49;20.30;;;10.50;;
50745;SDS011;36711;51.972;21.204;2023-03-20T01:17:19;21.40;;;10.80;;
50745;SDS011;36711;51.972;21.204;2023-03-20T01:19:49;19.90;;;10.10;;
50745;SDS011;36711;51.972;21.204;2023-03-20T01:22:18;18.90;;;10.60;;
50745;SDS011;36711;51.972;21.204;2023-03-20T01:24:47;24.40;;;10.40;;
50745;SDS011;36711;51.972;21.204;2023-03-20T01:27:16;22.60;;;10.50;;
50745;SDS011;36711;51.972;21.204;2023-03-20T01:29:46;20.40;;;9.70;;
50745;SDS011;36711;51.972;21.204;2023-03-20T01:32:15;20.10;;;9.70;;
50745;SDS011;36711;51.972;21.204;2023-03-20T01:34:44;18.30;;;9.80;;
50745;SDS011;36711;51.972;21.204;2023-03-20T01:37:22;15.50;;;9.40;;
50745;SDS011;36711;51.972;21.204;2023-03-20T01:39:52;19.20;;;10.30;;
50745;SDS011;36711;51.972;21.204;2023-03-20T01:42:21;18.60;;;9.80;;
50745;SDS011;36711;51.972;21.204;2023-03-20T01:44:50;19.80;;;9.80;;
50745;SDS011;36711;51.972;21.204;2023-03-20T01:47:20;24.90;;;10.50;;
50745;SDS011;36711;51.972;21.204;2023-03-20T01:52:28;20.80;;;10.60;;
50745;SDS011;36711;51.972;21.204;2023-03-20T01:54:57;19.00;;;9.70;;
50745;SDS011;36711;51.972;21.204;2023-03-20T01:57:26;24.40;;;10.30;;
50745;SDS011;36711;51.972;21.204;2023-03-20T01:59:59;18.00;;;10.30;;
50745;SDS011;36711;51.972;21.204;2023-03-20T02:02:30;17.30;;;9.70;;
50745;SDS011;36711;51.972;21.204;2023-03-20T02:05:01;21.10;;;10.20;;
50745;SDS011;36711;51.972;21.204;2023-03-20T02:07:31;19.80;;;10.30;;
50745;SDS011;36711;51.972;21.204;2023-03-20T02:10:02;18.40;;;9.70;;
50745;SDS011;36711;51.972;21.204;2023-03-20T02:12:31;23.20;;;11.20;;
50745;SDS011;36711;51.972;21.204;2023-03-20T02:15:00;17.20;;;9.60;;
50745;SDS011;36711;51.972;21.204;2023-03-20T02:17:29;18.50;;;9.70;;
50745;SDS011;36711;51.972;21.204;2023-03-20T02:43:33;20.40;;;11.40;;
50745;SDS011;36711;51.972;21.204;2023-03-20T02:46:18;21.00;;;10.40;;
50745;SDS011;36711;51.972;21.204;2023-03-20T02:48:57;21.40;;;10.50;;
50745;SDS011;36711;51.972;21.204;2023-03-20T02:54:07;24.10;;;11.40;;
50745;SDS011;36711;51.972;21.204;2023-03-20T02:59:25;22.20;;;11.30;;
50745;SDS011;36711;51.972;21.204;2023-03-20T03:02:08;21.70;;;11.00;;
50745;SDS011;36711;51.972;21.204;2023-03-20T03:04:38;22.70;;;12.10;;
50745;SDS011;36711;51.972;21.204;2023-03-20T03:07:08;25.30;;;11.20;;
50745;SDS011;36711;51.972;21.204;2023-03-20T03:09:40;21.50;;;11.70;;
50745;SDS011;36711;51.972;21.204;2023-03-20T03:14:49;26.60;;;12.10;;
50745;SDS011;36711;51.972;21.204;2023-03-20T03:17:20;23.80;;;12.10;;
50745;SDS011;36711;51.972;21.204;2023-03-20T03:19:52;21.90;;;12.60;;
50745;SDS011;36711;51.972;21.204;2023-03-20T03:22:23;25.10;;;11.70;;
50745;SDS011;36711;51.972;21.204;2023-03-20T03:24:53;25.10;;;12.40;;
50745;SDS011;36711;51.972;21.204;2023-03-20T03:27:23;23.40;;;13.30;;
50745;SDS011;36711;51.972;21.204;2023-03-20T03:30:00;28.90;;;12.80;;
50745;SDS011;36711;51.972;21.204;2023-03-20T03:32:32;26.70;;;12.90;;
50745;SDS011;36711;51.972;21.204;2023-03-20T03:35:03;23.10;;;12.30;;
50745;SDS011;36711;51.972;21.204;2023-03-20T03:37:57;26.50;;;12.90;;
50745;SDS011;36711;51.972;21.204;2023-03-20T03:46:12;24.80;;;12.50;;
50745;SDS011;36711;51.972;21.204;2023-03-20T03:48:43;23.50;;;12.20;;
50745;SDS011;36711;51.972;21.204;2023-03-20T03:51:13;26.00;;;13.20;;
50745;SDS011;36711;51.972;21.204;2023-03-20T03:53:48;25.80;;;12.40;;
50745;SDS011;36711;51.972;21.204;2023-03-20T03:56:20;25.10;;;13.10;;
50745;SDS011;36711;51.972;21.204;2023-03-20T03:58:51;24.00;;;12.50;;
50745;SDS011;36711;51.972;21.204;2023-03-20T04:01:21;25.00;;;12.40;;
50745;SDS011;36711;51.972;21.204;2023-03-20T04:03:51;26.00;;;12.60;;
50745;SDS011;36711;51.972;21.204;2023-03-20T04:06:21;29.20;;;12.90;;
50745;SDS011;36711;51.972;21.204;2023-03-20T04:08:50;25.40;;;13.10;;
50745;SDS011;36711;51.972;21.204;2023-03-20T04:11:23;25.10;;;13.00;;
50745;SDS011;36711;51.972;21.204;2023-03-20T04:13:52;23.80;;;12.70;;
50745;SDS011;36711;51.972;21.204;2023-03-20T04:16:21;25.00;;;12.60;;
50745;SDS011;36711;51.972;21.204;2023-03-20T04:18:51;23.60;;;11.80;;
50745;SDS011;36711;51.972;21.204;2023-03-20T04:21:20;22.30;;;11.80;;
50745;SDS011;36711;51.972;21.204;2023-03-20T04:23:49;24.50;;;12.10;;
50745;SDS011;36711;51.972;21.204;2023-03-20T04:26:18;27.90;;;12.80;;
50745;SDS011;36711;51.972;21.204;2023-03-20T04:28:46;23.50;;;12.30;;
50745;SDS011;36711;51.972;21.204;2023-03-20T04:31:15;25.60;;;12.50;;
50745;SDS011;36711;51.972;21.204;2023-03-20T04:33:45;29.40;;;13.50;;
50745;SDS011;36711;51.972;21.204;2023-03-20T04:36:15;27.70;;;13.80;;
50745;SDS011;36711;51.972;21.204;2023-03-20T04:38:44;24.60;;;13.60;;
50745;SDS011;36711;51.972;21.204;2023-03-20T04:41:12;28.90;;;14.20;;
50745;SDS011;36711;51.972;21.204;2023-03-20T04:43:41;23.60;;;13.20;;
50745;SDS011;36711;51.972;21.204;2023-03-20T04:46:10;29.10;;;13.40;;
50745;SDS011;36711;51.972;21.204;2023-03-20T04:48:39;26.60;;;13.20;;
50745;SDS011;36711;51.972;21.204;2023-03-20T04:51:08;25.40;;;13.10;;
50745;SDS011;36711;51.972;21.204;2023-03-20T04:53:38;28.20;;;13.10;;
50745;SDS011;36711;51.972;21.204;2023-03-20T04:56:07;29.60;;;13.30;;
50745;SDS011;36711;51.972;21.204;2023-03-20T04:58:35;26.80;;;13.20;;
50745;SDS011;36711;51.972;21.204;2023-03-20T05:01:04;24.50;;;13.10;;
50745;SDS011;36711;51.972;21.204;2023-03-20T05:03:33;26.40;;;12.90;;
50745;SDS011;36711;51.972;21.204;2023-03-20T05:06:03;27.60;;;13.90;;
50745;SDS011;36711;51.972;21.204;2023-03-20T05:08:31;26.60;;;13.50;;
50745;SDS011;36711;51.972;21.204;2023-03-20T05:11:00;26.30;;;13.10;;
50745;SDS011;36711;51.972;21.204;2023-03-20T05:13:29;27.30;;;13.60;;
50745;SDS011;36711;51.972;21.204;2023-03-20T05:15:58;30.00;;;14.10;;
50745;SDS011;36711;51.972;21.204;2023-03-20T05:18:27;24.00;;;13.50;;
50745;SDS011;36711;51.972;21.204;2023-03-20T05:20:56;25.40;;;13.80;;
50745;SDS011;36711;51.972;21.204;2023-03-20T05:23:25;26.00;;;13.80;;
50745;SDS011;36711;51.972;21.204;2023-03-20T05:25:54;27.90;;;14.00;;
50745;SDS011;36711;51.972;21.204;2023-03-20T05:28:22;25.50;;;13.00;;
50745;SDS011;36711;51.972;21.204;2023-03-20T05:30:51;27.20;;;13.80;;
50745;SDS011;36711;51.972;21.204;2023-03-20T05:33:20;26.00;;;12.70;;
50745;SDS011;36711;51.972;21.204;2023-03-20T05:35:49;28.90;;;13.60;;
50745;SDS011;36711;51.972;21.204;2023-03-20T05:38:18;28.70;;;13.90;;
50745;SDS011;36711;51.972;21.204;2023-03-20T05:40:54;27.20;;;14.10;;
50745;SDS011;36711;51.972;21.204;2023-03-20T05:43:23;26.40;;;13.10;;
50745;SDS011;36711;51.972;21.204;2023-03-20T05:45:52;25.10;;;13.40;;
50745;SDS011;36711;51.972;21.204;2023-03-20T05:48:21;29.10;;;13.50;;
50745;SDS011;36711;51.972;21.204;2023-03-20T05:50:50;27.60;;;13.10;;
50745;SDS011;36711;51.972;21.204;2023-03-20T05:53:19;28.00;;;13.80;;
50745;SDS011;36711;51.972;21.204;2023-03-20T05:55:48;24.30;;;12.90;;
50745;SDS011;36711;51.972;21.204;2023-03-20T05:58:17;27.40;;;13.40;;
50745;SDS011;36711;51.972;21.204;2023-03-20T06:00:46;31.00;;;14.10;;
50745;SDS011;36711;51.972;21.204;2023-03-20T06:03:15;25.80;;;13.10;;
50745;SDS011;36711;51.972;21.204;2023-03-20T06:05:44;26.00;;;12.80;;
50745;SDS011;36711;51.972;21.204;2023-03-20T06:08:13;30.30;;;13.50;;
50745;SDS011;36711;51.972;21.204;2023-03-20T06:10:43;26.50;;;13.50;;
50745;SDS011;36711;51.972;21.204;2023-03-20T06:13:12;46.20;;;20.20;;
50745;SDS011;36711;51.972;21.204;2023-03-20T06:15:40;53.50;;;21.90;;
50745;SDS011;36711;51.972;21.204;2023-03-20T06:18:09;38.10;;;16.40;;
50745;SDS011;36711;51.972;21.204;2023-03-20T06:20:38;38.80;;;16.90;;
50745;SDS011;36711;51.972;21.204;2023-03-20T06:23:07;29.10;;;14.30;;
50745;SDS011;36711;51.972;21.204;2023-03-20T06:25:36;34.10;;;15.60;;
50745;SDS011;36711;51.972;21.204;2023-03-20T06:28:06;25.90;;;13.60;;
50745;SDS011;36711;51.972;21.204;2023-03-20T06:30:35;29.30;;;14.40;;
50745;SDS011;36711;51.972;21.204;2023-03-20T06:33:07;32.80;;;14.70;;
50745;SDS011;36711;51.972;21.204;2023-03-20T06:38:06;31.10;;;14.40;;
50745;SDS011;36711;51.972;21.204;2023-03-20T06:40:35;30.20;;;14.20;;
50745;SDS011;36711;51.972;21.204;2023-03-20T06:43:04;31.80;;;14.60;;
50745;SDS011;36711;51.972;21.204;2023-03-20T06:45:33;32.10;;;14.50;;
50745;SDS011;36711;51.972;21.204;2023-03-20T06:48:08;36.30;;;18.20;;
50745;SDS011;36711;51.972;21.204;2023-03-20T06:50:38;36.00;;;14.90;;
50745;SDS011;36711;51.972;21.204;2023-03-20T06:53:07;38.90;;;18.60;;
50745;SDS011;36711;51.972;21.204;2023-03-20T06:55:36;35.20;;;16.90;;
50745;SDS011;36711;51.972;21.204;2023-03-20T06:58:05;28.90;;;14.50;;
50745;SDS011;36711;51.972;21.204;2023-03-20T07:00:34;28.50;;;14.40;;
50745;SDS011;36711;51.972;21.204;2023-03-20T07:03:03;34.80;;;15.70;;
50745;SDS011;36711;51.972;21.204;2023-03-20T07:05:32;32.90;;;14.50;;
50745;SDS011;36711;51.972;21.204;2023-03-20T07:08:01;28.20;;;14.00;;
50745;SDS011;36711;51.972;21.204;2023-03-20T07:10:30;29.90;;;14.30;;
50745;SDS011;36711;51.972;21.204;2023-03-20T07:12:59;27.50;;;14.30;;
50745;SDS011;36711;51.972;21.204;2023-03-20T07:15:28;29.80;;;14.80;;
50745;SDS011;36711;51.972;21.204;2023-03-20T07:17:57;26.20;;;13.70;;
50745;SDS011;36711;51.972;21.204;2023-03-20T07:20:26;28.40;;;14.50;;
50745;SDS011;36711;51.972;21.204;2023-03-20T07:22:55;25.40;;;14.60;;
50745;SDS011;36711;51.972;21.204;2023-03-20T07:25:24;28.70;;;14.30;;
50745;SDS011;36711;51.972;21.204;2023-03-20T07:28:09;31.80;;;14.60;;
50745;SDS011;36711;51.972;21.204;2023-03-20T07:30:38;34.90;;;17.70;;
50745;SDS011;36711;51.972;21.204;2023-03-20T07:33:07;33.40;;;17.70;;
50745;SDS011;36711;51.972;21.204;2023-03-20T07:35:35;30.50;;;14.70;;
50745;SDS011;36711;51.972;21.204;2023-03-20T07:38:07;28.90;;;14.90;;
50745;SDS011;36711;51.972;21.204;2023-03-20T07:40:36;30.40;;;14.60;;
50745;SDS011;36711;51.972;21.204;2023-03-20T07:43:04;27.70;;;14.10;;
50745;SDS011;36711;51.972;21.204;2023-03-20T07:45:33;27.60;;;14.20;;
50745;SDS011;36711;51.972;21.204;2023-03-20T07:48:03;26.50;;;14.50;;
50745;SDS011;36711;51.972;21.204;2023-03-20T07:50:32;22.50;;;13.50;;
50745;SDS011;36711;51.972;21.204;2023-03-20T07:53:01;26.60;;;14.20;;
50745;SDS011;36711;51.972;21.204;2023-03-20T07:55:30;27.80;;;14.00;;
50745;SDS011;36711;51.972;21.204;2023-03-20T07:57:59;26.70;;;14.20;;
50745;SDS011;36711;51.972;21.204;2023-03-20T08:00:28;25.30;;;14.50;;
50745;SDS011;36711;51.972;21.204;2023-03-20T08:02:57;25.80;;;14.10;;
50745;SDS011;36711;51.972;21.204;2023-03-20T08:05:26;27.80;;;16.80;;
50745;SDS011;36711;51.972;21.204;2023-03-20T08:07:55;25.20;;;13.80;;
50745;SDS011;36711;51.972;21.204;2023-03-20T08:10:24;25.80;;;13.30;;
50745;SDS011;36711;51.972;21.204;2023-03-20T08:12:53;24.00;;;13.40;;
50745;SDS011;36711;51.972;21.204;2023-03-20T08:15:22;24.80;;;12.60;;
50745;SDS011;36711;51.972;21.204;2023-03-20T08:17:51;19.60;;;11.40;;
50745;SDS011;36711;51.972;21.204;2023-03-20T08:20:20;21.80;;;11.80;;
50745;SDS011;36711;51.972;21.204;2023-03-20T08:22:49;23.20;;;12.00;;
50745;SDS011;36711;51.972;21.204;2023-03-20T08:25:18;24.10;;;11.90;;
50745;SDS011;36711;51.972;21.204;2023-03-20T08:27:47;22.50;;;11.40;;
50745;SDS011;36711;51.972;21.204;2023-03-20T08:30:16;19.20;;;11.00;;
50745;SDS011;36711;51.972;21.204;2023-03-20T08:32:45;18.20;;;10.90;;
50745;SDS011;36711;51.972;21.204;2023-03-20T08:35:14;21.90;;;11.60;;
50745;SDS011;36711;51.972;21.204;2023-03-20T08:38:00;22.10;;;11.80;;
50745;SDS011;36711;51.972;21.204;2023-03-20T08:40:29;19.00;;;10.80;;
50745;SDS011;36711;51.972;21.204;2023-03-20T08:42:58;17.60;;;9.20;;
50745;SDS011;36711;51.972;21.204;2023-03-20T08:45:27;15.20;;;8.40;;
50745;SDS011;36711;51.972;21.204;2023-03-20T08:47:56;17.40;;;9.20;;
50745;SDS011;36711;51.972;21.204;2023-03-20T08:50:24;13.40;;;7.70;;
50745;SDS011;36711;51.972;21.204;2023-03-20T08:52:53;13.20;;;7.70;;
50745;SDS011;36711;51.972;21.204;2023-03-20T08:55:23;14.00;;;8.20;;
50745;SDS011;36711;51.972;21.204;2023-03-20T08:57:51;10.40;;;7.20;;
50745;SDS011;36711;51.972;21.204;2023-03-20T09:00:22;12.40;;;7.60;;
50745;SDS011;36711;51.972;21.204;2023-03-20T09:02:51;13.60;;;8.20;;
50745;SDS011;36711;51.972;21.204;2023-03-20T09:05:20;13.70;;;7.60;;
50745;SDS011;36711;51.972;21.204;2023-03-20T09:07:49;14.00;;;7.90;;
50745;SDS011;36711;51.972;21.204;2023-03-20T09:10:19;12.10;;;7.50;;
50745;SDS011;36711;51.972;21.204;2023-03-20T09:12:47;11.10;;;7.80;;
50745;SDS011;36711;51.972;21.204;2023-03-20T09:15:16;11.40;;;6.30;;
50745;SDS011;36711;51.972;21.204;2023-03-20T09:17:45;12.50;;;6.80;;
50745;SDS011;36711;51.972;21.204;2023-03-20T09:20:14;11.80;;;7.50;;
50745;SDS011;36711;51.972;21.204;2023-03-20T09:22:43;11.30;;;7.30;;
50745;SDS011;36711;51.972;21.204;2023-03-20T09:25:13;9.40;;;6.60;;
50745;SDS011;36711;51.972;21.204;2023-03-20T09:27:41;10.40;;;6.50;;
50745;SDS011;36711;51.972;21.204;2023-03-20T09:30:10;11.10;;;7.20;;
50745;SDS011;36711;51.972;21.204;2023-03-20T09:32:40;9.10;;;7.00;;
50745;SDS011;36711;51.972;21.204;2023-03-20T09:35:09;9.90;;;6.80;;
50745;SDS011;36711;51.972;21.204;2023-03-20T09:37:37;9.70;;;6.80;;
50745;SDS011;36711;51.972;21.204;2023-03-20T09:40:06;9.90;;;7.00;;
50745;SDS011;36711;51.972;21.204;2023-03-20T09:53:00;10.40;;;5.80;;
50745;SDS011;36711;51.972;21.204;2023-03-20T09:55:35;7.00;;;5.20;;
50745;SDS011;36711;51.972;21.204;2023-03-20T10:00:42;6.50;;;5.30;;
50745;SDS011;36711;51.972;21.204;2023-03-20T10:03:19;9.80;;;5.40;;
50745;SDS011;36711;51.972;21.204;2023-03-20T10:05:55;7.60;;;5.10;;
50745;SDS011;36711;51.972;21.204;2023-03-20T10:08:26;7.30;;;5.20;;
50745;SDS011;36711;51.972;21.204;2023-03-20T10:10:58;9.60;;;5.30;;
50745;SDS011;36711;51.972;21.204;2023-03-20T10:21:31;8.20;;;5.30;;
50745;SDS011;36711;51.972;21.204;2023-03-20T10:24:05;6.00;;;4.60;;
50745;SDS011;36711;51.972;21.204;2023-03-20T10:26:38;6.90;;;4.40;;
50745;SDS011;36711;51.972;21.204;2023-03-20T10:29:32;8.90;;;4.60;;
50745;SDS011;36711;51.972;21.204;2023-03-20T10:32:02;7.10;;;4.80;;
50745;SDS011;36711;51.972;21.204;2023-03-20T10:39:40;12.10;;;6.00;;
50745;SDS011;36711;51.972;21.204;2023-03-20T10:42:18;8.00;;;4.90;;
50745;SDS011;36711;51.972;21.204;2023-03-20T10:47:29;7.10;;;5.00;;
50745;SDS011;36711;51.972;21.204;2023-03-20T10:50:02;8.60;;;4.70;;
50745;SDS011;36711;51.972;21.204;2023-03-20T10:52:34;10.40;;;5.20;;
50745;SDS011;36711;51.972;21.204;2023-03-20T10:55:09;8.70;;;4.90;;
50745;SDS011;36711;51.972;21.204;2023-03-20T10:57:39;10.20;;;5.30;;
50745;SDS011;36711;51.972;21.204;2023-03-20T11:00:21;7.90;;;5.50;;
50745;SDS011;36711;51.972;21.204;2023-03-20T11:02:51;6.90;;;5.30;;
50745;SDS011;36711;51.972;21.204;2023-03-20T11:05:23;7.80;;;4.80;;
50745;SDS011;36711;51.972;21.204;2023-03-20T11:10:34;7.00;;;5.10;;
50745;SDS011;36711;51.972;21.204;2023-03-20T11:15:42;9.00;;;5.60;;
50745;SDS011;36711;51.972;21.204;2023-03-20T11:18:12;7.60;;;5.40;;
50745;SDS011;36711;51.972;21.204;2023-03-20T11:23:16;7.70;;;4.20;;
50745;SDS011;36711;51.972;21.204;2023-03-20T11:25:55;6.40;;;4.70;;
50745;SDS011;36711;51.972;21.204;2023-03-20T11:28:32;7.40;;;5.20;;
50745;SDS011;36711;51.972;21.204;2023-03-20T11:33:51;10.00;;;4.90;;
50745;SDS011;36711;51.972;21.204;2023-03-20T11:36:24;9.60;;;4.70;;
50745;SDS011;36711;51.972;21.204;2023-03-20T11:39:12;10.70;;;5.60;;
50745;SDS011;36711;51.972;21.204;2023-03-20T11:44:23;8.20;;;5.00;;
50745;SDS011;36711;51.972;21.204;2023-03-20T11:47:05;11.50;;;6.00;;
50745;SDS011;36711;51.972;21.204;2023-03-20T11:49:44;9.70;;;5.90;;
50745;SDS011;36711;51.972;21.204;2023-03-20T11:52:19;9.90;;;6.00;;
50745;SDS011;36711;51.972;21.204;2023-03-20T11:54:50;6.70;;;5.30;;
50745;SDS011;36711;51.972;21.204;2023-03-20T11:57:27;10.00;;;6.20;;
50745;SDS011;36711;51.972;21.204;2023-03-20T11:59:57;10.40;;;5.90;;
50745;SDS011;36711;51.972;21.204;2023-03-20T12:02:28;11.10;;;6.50;;
50745;SDS011;36711;51.972;21.204;2023-03-20T12:05:00;12.80;;;6.30;;
50745;SDS011;36711;51.972;21.204;2023-03-20T12:07:31;11.60;;;7.20;;
50745;SDS011;36711;51.972;21.204;2023-03-20T12:10:02;19.10;;;7.60;;
50745;SDS011;36711;51.972;21.204;2023-03-20T12:17:54;15.80;;;8.00;;
50745;SDS011;36711;51.972;21.204;2023-03-20T12:23:12;10.80;;;7.40;;
50745;SDS011;36711;51.972;21.204;2023-03-20T12:28:32;12.00;;;7.30;;
50745;SDS011;36711;51.972;21.204;2023-03-20T12:31:05;15.60;;;7.30;;
50745;SDS011;36711;51.972;21.204;2023-03-20T12:36:13;11.70;;;7.10;;
50745;SDS011;36711;51.972;21.204;2023-03-20T12:38:43;9.60;;;7.00;;
50745;SDS011;36711;51.972;21.204;2023-03-20T12:41:14;10.40;;;6.50;;
50745;SDS011;36711;51.972;21.204;2023-03-20T12:52:16;10.70;;;6.30;;
50745;SDS011;36711;51.972;21.204;2023-03-20T12:54:51;9.10;;;5.30;;
50745;SDS011;36711;51.972;21.204;2023-03-20T12:57:32;8.70;;;5.30;;
50745;SDS011;36711;51.972;21.204;2023-03-20T13:10:57;10.20;;;6.00;;
50745;SDS011;36711;51.972;21.204;2023-03-20T13:13:36;11.70;;;6.50;;
50745;SDS011;36711;51.972;21.204;2023-03-20T13:24:49;14.10;;;6.20;;
50745;SDS011;36711;51.972;21.204;2023-03-20T13:35:17;14.80;;;7.10;;
50745;SDS011;36711;51.972;21.204;2023-03-20T13:37:52;11.90;;;7.50;;
50745;SDS011;36711;51.972;21.204;2023-03-20T13:42:52;10.00;;;6.80;;
50745;SDS011;36711;51.972;21.204;2023-03-20T13:45:28;12.00;;;7.00;;
50745;SDS011;36711;51.972;21.204;2023-03-20T13:48:02;13.40;;;7.00;;
50745;SDS011;36711;51.972;21.204;2023-03-20T13:50:38;12.70;;;7.20;;
50745;SDS011;36711;51.972;21.204;2023-03-20T13:55:51;12.60;;;6.10;;
50745;SDS011;36711;51.972;21.204;2023-03-20T14:01:17;10.70;;;5.70;;
50745;SDS011;36711;51.972;21.204;2023-03-20T14:03:49;8.40;;;5.30;;
50745;SDS011;36711;51.972;21.204;2023-03-20T14:09:00;10.10;;;4.90;;
50745;SDS011;36711;51.972;21.204;2023-03-20T14:11:29;9.60;;;4.20;;
50745;SDS011;36711;51.972;21.204;2023-03-20T14:16:35;8.40;;;4.30;;
50745;SDS011;36711;51.972;21.204;2023-03-20T14:19:05;8.50;;;4.00;;
50745;SDS011;36711;51.972;21.204;2023-03-20T14:21:34;9.50;;;4.30;;
50745;SDS011;36711;51.972;21.204;2023-03-20T14:24:05;9.10;;;4.50;;
50745;SDS011;36711;51.972;21.204;2023-03-20T14:26:34;10.60;;;5.10;;
50745;SDS011;36711;51.972;21.204;2023-03-20T14:31:37;10.70;;;4.40;;
50745;SDS011;36711;51.972;21.204;2023-03-20T14:47:42;7.00;;;4.20;;
50745;SDS011;36711;51.972;21.204;2023-03-20T14:50:48;7.50;;;4.00;;
50745;SDS011;36711;51.972;21.204;2023-03-20T14:53:12;7.40;;;3.50;;
50745;SDS011;36711;51.972;21.204;2023-03-20T15:00:45;9.10;;;3.90;;
50745;SDS011;36711;51.972;21.204;2023-03-20T15:03:14;6.20;;;4.30;;
50745;SDS011;36711;51.972;21.204;2023-03-20T15:05:45;7.30;;;4.30;;
50745;SDS011;36711;51.972;21.204;2023-03-20T15:08:16;8.30;;;4.40;;
50745;SDS011;36711;51.972;21.204;2023-03-20T15:10:50;7.30;;;4.10;;
50745;SDS011;36711;51.972;21.204;2023-03-20T15:13:19;10.90;;;3.90;;
50745;SDS011;36711;51.972;21.204;2023-03-20T15:18:21;11.00;;;4.70;;
50745;SDS011;36711;51.972;21.204;2023-03-20T15:20:51;8.50;;;4.50;;
50745;SDS011;36711;51.972;21.204;2023-03-20T15:23:19;6.80;;;4.10;;
50745;SDS011;36711;51.972;21.204;2023-03-20T15:25:48;5.20;;;4.00;;
50745;SDS011;36711;51.972;21.204;2023-03-20T15:28:19;8.60;;;4.90;;
50745;SDS011;36711;51.972;21.204;2023-03-20T15:30:50;9.60;;;4.80;;
50745;SDS011;36711;51.972;21.204;2023-03-20T15:33:27;8.30;;;4.80;;
50745;SDS011;36711;51.972;21.204;2023-03-20T15:35:57;10.40;;;5.30;;
50745;SDS011;36711;51.972;21.204;2023-03-20T15:38:28;11.90;;;5.10;;
50745;SDS011;36711;51.972;21.204;2023-03-20T15:41:02;7.20;;;4.90;;
50745;SDS011;36711;51.972;21.204;2023-03-20T15:43:31;6.70;;;4.90;;
50745;SDS011;36711;51.972;21.204;2023-03-20T15:46:02;11.20;;;5.30;;
50745;SDS011;36711;51.972;21.204;2023-03-20T15:48:46;7.20;;;4.80;;
50745;SDS011;36711;51.972;21.204;2023-03-20T15:51:15;11.90;;;5.20;;
50745;SDS011;36711;51.972;21.204;2023-03-20T15:53:45;8.10;;;5.20;;
50745;SDS011;36711;51.972;21.204;2023-03-20T15:56:16;11.00;;;5.20;;
50745;SDS011;36711;51.972;21.204;2023-03-20T15:58:47;8.00;;;5.80;;
50745;SDS011;36711;51.972;21.204;2023-03-20T16:01:20;10.10;;;5.70;;
50745;SDS011;36711;51.972;21.204;2023-03-20T16:03:50;10.70;;;5.90;;
50745;SDS011;36711;51.972;21.204;2023-03-20T16:06:20;12.00;;;6.90;;
50745;SDS011;36711;51.972;21.204;2023-03-20T16:08:56;10.20;;;6.20;;
50745;SDS011;36711;51.972;21.204;2023-03-20T16:11:34;11.30;;;6.70;;
50745;SDS011;36711;51.972;21.204;2023-03-20T16:14:05;14.20;;;7.00;;
50745;SDS011;36711;51.972;21.204;2023-03-20T16:16:34;12.70;;;7.40;;
50745;SDS011;36711;51.972;21.204;2023-03-20T16:19:05;14.40;;;7.30;;
50745;SDS011;36711;51.972;21.204;2023-03-20T16:21:35;10.00;;;6.20;;
50745;SDS011;36711;51.972;21.204;2023-03-20T16:24:06;9.20;;;5.50;;
50745;SDS011;36711;51.972;21.204;2023-03-20T16:26:37;12.30;;;5.60;;
50745;SDS011;36711;51.972;21.204;2023-03-20T16:29:08;9.90;;;4.60;;
50745;SDS011;36711;51.972;21.204;2023-03-20T16:34:30;8.40;;;5.00;;
50745;SDS011;36711;51.972;21.204;2023-03-20T16:37:00;10.00;;;5.30;;
50745;SDS011;36711;51.972;21.204;2023-03-20T16:39:30;21.10;;;12.80;;
50745;SDS011;36711;51.972;21.204;2023-03-20T16:44:47;8.80;;;5.40;;
50745;SDS011;36711;51.972;21.204;2023-03-20T16:47:21;8.90;;;4.50;;
50745;SDS011;36711;51.972;21.204;2023-03-20T16:52:27;10.00;;;5.20;;
50745;SDS011;36711;51.972;21.204;2023-03-20T16:54:56;12.00;;;5.10;;
50745;SDS011;36711;51.972;21.204;2023-03-20T16:57:26;6.90;;;4.70;;
50745;SDS011;36711;51.972;21.204;2023-03-20T16:59:57;7.20;;;5.00;;
50745;SDS011;36711;51.972;21.204;2023-03-20T17:02:29;10.80;;;5.70;;
50745;SDS011;36711;51.972;21.204;2023-03-20T17:05:00;14.00;;;6.40;;
50745;SDS011;36711;51.972;21.204;2023-03-20T17:07:30;17.80;;;7.80;;
50745;SDS011;36711;51.972;21.204;2023-03-20T17:12:43;22.00;;;9.20;;
50745;SDS011;36711;51.972;21.204;2023-03-20T17:15:13;32.60;;;11.80;;
50745;SDS011;36711;51.972;21.204;2023-03-20T17:17:42;21.50;;;9.60;;
50745;SDS011;36711;51.972;21.204;2023-03-20T17:20:17;57.20;;;36.60;;
50745;SDS011;36711;51.972;21.204;2023-03-20T17:22:46;14.60;;;7.70;;
50745;SDS011;36711;51.972;21.204;2023-03-20T17:25:15;12.00;;;7.20;;
50745;SDS011;36711;51.972;21.204;2023-03-20T17:27:45;10.60;;;5.70;;
50745;SDS011;36711;51.972;21.204;2023-03-20T17:30:16;37.10;;;28.70;;
50745;SDS011;36711;51.972;21.204;2023-03-20T17:32:45;9.80;;;6.20;;
50745;SDS011;36711;51.972;21.204;2023-03-20T17:35:14;25.60;;;11.30;;
50745;SDS011;36711;51.972;21.204;2023-03-20T17:37:43;9.00;;;6.10;;
50745;SDS011;36711;51.972;21.204;2023-03-20T17:40:15;8.10;;;5.10;;
50745;SDS011;36711;51.972;21.204;2023-03-20T17:42:44;9.50;;;5.30;;
50745;SDS011;36711;51.972;21.204;2023-03-20T17:45:14;32.50;;;11.60;;